createdAt,value
2023-05-17T00:00:35.834Z,53.82
2023-05-17T00:01:35.823Z,53.83
2023-05-17T00:02:34.856Z,53.81
2023-05-17T00:03:34.803Z,53.80
2023-05-17T00:04:35.847Z,53.78
2023-05-17T00:05:34.800Z,53.78
2023-05-17T00:06:35.892Z,53.76
2023-05-17T00:07:35.789Z,53.77
2023-05-17T00:08:34.782Z,53.78
2023-05-17T00:09:35.782Z,53.76
2023-05-17T00:10:35.753Z,53.79
2023-05-17T00:11:34.738Z,53.76
2023-05-17T00:12:35.735Z,53.75
2023-05-17T00:13:35.750Z,53.77
2023-05-17T00:14:35.882Z,53.76
2023-05-17T00:15:34.739Z,53.76
2023-05-17T00:16:35.713Z,53.74
2023-05-17T00:17:34.890Z,53.74
2023-05-17T00:18:35.830Z,53.77
2023-05-17T00:19:34.717Z,53.72
2023-05-17T00:20:35.708Z,53.74
2023-05-17T00:21:35.716Z,53.75
2023-05-17T00:22:34.786Z,53.74
2023-05-17T00:23:34.831Z,53.72
2023-05-17T00:24:34.895Z,53.73
2023-05-17T00:25:35.926Z,53.70
2023-05-17T00:26:35.965Z,53.70
2023-05-17T00:27:35.023Z,53.69
2023-05-17T00:28:36.049Z,53.71
2023-05-17T00:29:36.094Z,53.71
2023-05-17T00:30:36.292Z,53.69
2023-05-17T00:31:36.189Z,53.71
2023-05-17T00:32:36.313Z,53.69
2023-05-17T00:33:35.311Z,53.68
2023-05-17T00:34:35.391Z,53.70
2023-05-17T00:35:35.385Z,53.68
2023-05-17T00:36:36.451Z,53.68
2023-05-17T00:37:35.483Z,53.67
2023-05-17T00:38:36.542Z,53.68
2023-05-17T00:39:35.592Z,53.69
2023-05-17T00:40:35.655Z,53.64
2023-05-17T00:41:36.681Z,53.67
2023-05-17T00:42:35.732Z,53.64
2023-05-17T00:43:36.774Z,53.62
2023-05-17T00:44:35.846Z,53.61
2023-05-17T00:45:35.886Z,53.65
2023-05-17T00:46:36.049Z,53.64
2023-05-17T00:47:37.090Z,53.62
2023-05-17T00:48:37.058Z,53.61
2023-05-17T00:49:37.095Z,53.64
2023-05-17T00:50:37.135Z,53.60
2023-05-17T00:51:36.261Z,53.64
2023-05-17T00:52:36.253Z,53.63
2023-05-17T00:53:36.284Z,53.63
2023-05-17T00:54:37.360Z,53.61
2023-05-17T00:55:36.377Z,53.65
2023-05-17T00:56:37.443Z,53.61
2023-05-17T00:57:37.493Z,53.60
2023-05-17T00:58:37.556Z,53.61
2023-05-17T00:59:36.604Z,53.59
2023-05-17T01:00:37.656Z,53.61
2023-05-17T01:01:37.724Z,53.59
2023-05-17T01:02:37.940Z,53.58
2023-05-17T01:03:37.967Z,53.58
2023-05-17T01:04:36.924Z,53.56
2023-05-17T01:05:36.912Z,53.59
2023-05-17T01:06:36.992Z,53.59
2023-05-17T01:07:38.068Z,53.57
2023-05-17T01:08:37.083Z,53.58
2023-05-17T01:09:37.147Z,53.53
2023-05-17T01:10:37.209Z,53.55
2023-05-17T01:11:38.226Z,53.55
2023-05-17T01:12:37.282Z,53.55
2023-05-17T01:13:37.337Z,53.53
2023-05-17T01:14:37.404Z,53.55
2023-05-17T01:15:38.450Z,53.52
2023-05-17T01:16:38.524Z,53.55
2023-05-17T01:17:38.649Z,53.51
2023-05-17T01:18:38.906Z,53.54
2023-05-17T01:19:37.906Z,53.57
2023-05-17T01:20:38.785Z,53.53
2023-05-17T01:21:37.793Z,53.54
2023-05-17T01:22:37.949Z,53.50
2023-05-17T01:23:38.897Z,53.53
2023-05-17T01:24:38.958Z,53.52
2023-05-17T01:25:38.990Z,53.51
2023-05-17T01:26:39.051Z,53.51
2023-05-17T01:27:39.103Z,53.48
2023-05-17T01:28:38.171Z,53.51
2023-05-17T01:29:39.231Z,53.52
2023-05-17T01:30:38.286Z,53.51
2023-05-17T01:31:38.329Z,53.52
2023-05-17T01:32:39.443Z,53.51
2023-05-17T01:33:38.584Z,53.51
2023-05-17T01:34:38.628Z,53.49
2023-05-17T01:35:38.586Z,53.48
2023-05-17T01:36:39.635Z,53.48
2023-05-17T01:37:39.694Z,53.45
2023-05-17T01:38:39.744Z,53.46
2023-05-17T01:39:39.810Z,53.46
2023-05-17T01:40:39.856Z,53.48
2023-05-17T01:41:38.920Z,53.45
2023-05-17T01:42:38.996Z,53.45
2023-05-17T01:43:39.014Z,53.43
2023-05-17T01:44:40.078Z,53.45
2023-05-17T01:45:40.145Z,53.46
2023-05-17T01:46:40.193Z,53.44
2023-05-17T01:47:39.338Z,53.43
2023-05-17T01:48:40.365Z,53.43
2023-05-17T01:49:40.367Z,53.43
2023-05-17T01:50:40.515Z,53.41
2023-05-17T01:51:40.499Z,53.44
2023-05-17T01:52:40.526Z,53.38
2023-05-17T01:53:39.576Z,53.42
2023-05-17T01:54:40.644Z,53.43
2023-05-17T01:55:39.696Z,53.43
2023-05-17T01:56:39.733Z,53.43
2023-05-17T01:57:40.805Z,53.40
2023-05-17T01:58:39.864Z,53.36
2023-05-17T01:59:40.926Z,53.38
2023-05-17T02:00:40.973Z,53.42
2023-05-17T02:01:41.025Z,53.38
2023-05-17T02:02:40.171Z,53.37
2023-05-17T02:03:40.251Z,53.38
2023-05-17T02:04:41.353Z,53.37
2023-05-17T02:05:40.274Z,53.34
2023-05-17T02:06:40.454Z,53.35
2023-05-17T02:07:40.435Z,53.35
2023-05-17T02:08:41.522Z,53.33
2023-05-17T02:09:41.566Z,53.32
2023-05-17T02:10:41.572Z,53.31
2023-05-17T02:11:41.647Z,53.31
2023-05-17T02:12:41.721Z,53.33
2023-05-17T02:13:40.770Z,53.31
2023-05-17T02:14:41.873Z,53.34
2023-05-17T02:15:41.885Z,53.31
2023-05-17T02:16:41.973Z,53.28
2023-05-17T02:17:41.281Z,53.32
2023-05-17T02:18:42.118Z,53.27
2023-05-17T02:19:41.163Z,53.28
2023-05-17T02:20:41.183Z,53.29
2023-05-17T02:21:42.338Z,53.27
2023-05-17T02:22:42.320Z,53.30
2023-05-17T02:23:42.370Z,53.27
2023-05-17T02:24:41.437Z,53.31
2023-05-17T02:25:41.490Z,53.27
2023-05-17T02:26:41.562Z,53.25
2023-05-17T02:27:42.606Z,53.24
2023-05-17T02:28:42.671Z,53.28
2023-05-17T02:29:41.733Z,53.25
2023-05-17T02:30:41.780Z,53.27
2023-05-17T02:31:42.852Z,53.26
2023-05-17T02:32:42.973Z,53.25
2023-05-17T02:33:43.036Z,53.22
2023-05-17T02:34:42.036Z,53.26
2023-05-17T02:35:42.096Z,53.23
2023-05-17T02:36:42.156Z,53.23
2023-05-17T02:37:43.461Z,53.23
2023-05-17T02:38:42.289Z,53.21
2023-05-17T02:39:42.363Z,53.18
2023-05-17T02:40:43.396Z,53.21
2023-05-17T02:41:43.469Z,53.19
2023-05-17T02:42:42.534Z,53.17
2023-05-17T02:43:43.586Z,53.16
2023-05-17T02:44:42.675Z,53.16
2023-05-17T02:45:43.731Z,53.15
2023-05-17T02:46:43.759Z,53.14
2023-05-17T02:47:43.037Z,53.17
2023-05-17T02:48:43.890Z,53.16
2023-05-17T02:49:42.969Z,53.13
2023-05-17T02:50:44.038Z,53.16
2023-05-17T02:51:43.083Z,53.13
2023-05-17T02:52:44.141Z,53.13
2023-05-17T02:53:43.284Z,53.12
2023-05-17T02:54:44.262Z,53.10
2023-05-17T02:55:44.347Z,53.10
2023-05-17T02:56:44.421Z,53.10
2023-05-17T02:57:43.462Z,53.09
2023-05-17T02:58:44.517Z,53.08
2023-05-17T02:59:44.627Z,53.06
2023-05-17T03:00:43.649Z,53.08
2023-05-17T03:01:43.713Z,53.06
2023-05-17T03:02:44.813Z,53.06
2023-05-17T03:03:45.061Z,53.08
2023-05-17T03:04:44.018Z,53.05
2023-05-17T03:05:43.947Z,53.05
2023-05-17T03:06:44.018Z,53.05
2023-05-17T03:07:45.102Z,53.02
2023-05-17T03:08:44.159Z,53.06
2023-05-17T03:09:44.466Z,53.05
2023-05-17T03:10:44.290Z,53.02
2023-05-17T03:11:45.319Z,53.00
2023-05-17T03:12:44.381Z,53.01
2023-05-17T03:13:45.436Z,52.99
2023-05-17T03:14:44.518Z,52.98
2023-05-17T03:15:45.542Z,52.98
2023-05-17T03:16:45.580Z,52.97
2023-05-17T03:17:45.715Z,52.97
2023-05-17T03:18:45.877Z,52.98
2023-05-17T03:19:44.797Z,52.96
2023-05-17T03:20:45.793Z,52.96
2023-05-17T03:21:44.882Z,52.98
2023-05-17T03:22:44.933Z,52.93
2023-05-17T03:23:45.979Z,52.95
2023-05-17T03:24:46.037Z,52.96
2023-05-17T03:25:46.356Z,52.94
2023-05-17T03:26:45.155Z,52.94
2023-05-17T03:27:46.257Z,52.93
2023-05-17T03:28:46.256Z,52.92
2023-05-17T03:29:46.396Z,52.93
2023-05-17T03:30:45.381Z,52.91
2023-05-17T03:31:46.439Z,52.92
2023-05-17T03:32:46.632Z,52.89
2023-05-17T03:33:46.666Z,52.95
2023-05-17T03:34:46.617Z,52.90
2023-05-17T03:35:45.672Z,52.90
2023-05-17T03:36:45.701Z,52.93
2023-05-17T03:37:45.788Z,52.88
2023-05-17T03:38:46.855Z,52.87
2023-05-17T03:39:45.959Z,52.85
2023-05-17T03:40:46.976Z,52.89
2023-05-17T03:41:47.195Z,52.90
2023-05-17T03:42:46.111Z,52.86
2023-05-17T03:43:47.146Z,52.85
2023-05-17T03:44:47.210Z,52.84
2023-05-17T03:45:47.258Z,52.86
2023-05-17T03:46:46.314Z,52.85
2023-05-17T03:47:46.417Z,52.83
2023-05-17T03:48:46.468Z,52.83
2023-05-17T03:49:47.439Z,52.84
2023-05-17T03:50:46.509Z,52.87
2023-05-17T03:51:46.529Z,52.84
2023-05-17T03:52:46.589Z,52.82
2023-05-17T03:53:47.642Z,52.81
2023-05-17T03:54:48.236Z,52.81
2023-05-17T03:55:46.760Z,52.79
2023-05-17T03:56:47.804Z,52.80
2023-05-17T03:57:47.119Z,52.77
2023-05-17T03:58:46.910Z,52.79
2023-05-17T03:59:47.956Z,52.78
2023-05-17T04:00:47.005Z,52.81
2023-05-17T04:01:47.030Z,52.78
2023-05-17T04:02:47.086Z,52.76
2023-05-17T04:03:47.146Z,52.75
2023-05-17T04:04:48.174Z,52.76
2023-05-17T04:05:47.136Z,52.74
2023-05-17T04:06:48.184Z,52.74
2023-05-17T04:07:48.231Z,52.70
2023-05-17T04:08:48.263Z,52.71
2023-05-17T04:09:47.329Z,52.71
2023-05-17T04:10:48.334Z,52.69
2023-05-17T04:11:47.394Z,52.68
2023-05-17T04:12:48.399Z,52.71
2023-05-17T04:13:48.598Z,52.67
2023-05-17T04:14:48.498Z,52.66
2023-05-17T04:15:47.530Z,52.68
2023-05-17T04:16:47.595Z,52.69
2023-05-17T04:17:47.653Z,52.69
2023-05-17T04:18:48.737Z,52.65
2023-05-17T04:19:47.778Z,52.66
2023-05-17T04:20:48.770Z,52.64
2023-05-17T04:21:48.810Z,52.61
2023-05-17T04:22:47.876Z,52.63
2023-05-17T04:23:47.939Z,52.63
2023-05-17T04:24:49.000Z,52.61
2023-05-17T04:25:49.062Z,52.60
2023-05-17T04:26:48.113Z,52.59
2023-05-17T04:27:49.151Z,52.61
2023-05-17T04:28:49.222Z,52.59
2023-05-17T04:29:49.521Z,52.58
2023-05-17T04:30:49.334Z,52.56
2023-05-17T04:31:49.443Z,52.54
2023-05-17T04:32:49.490Z,52.55
2023-05-17T04:33:49.526Z,52.55
2023-05-17T04:34:49.896Z,52.53
2023-05-17T04:35:49.606Z,52.58
2023-05-17T04:36:49.668Z,52.53
2023-05-17T04:37:48.705Z,52.52
2023-05-17T04:38:49.864Z,52.51
2023-05-17T04:39:49.831Z,52.51
2023-05-17T04:40:49.882Z,52.51
2023-05-17T04:41:49.934Z,52.49
2023-05-17T04:42:48.981Z,52.48
2023-05-17T04:43:49.006Z,52.49
2023-05-17T04:44:50.059Z,52.50
2023-05-17T04:45:50.350Z,52.49
2023-05-17T04:46:50.162Z,52.46
2023-05-17T04:47:50.230Z,52.46
2023-05-17T04:48:50.346Z,52.43
2023-05-17T04:49:49.283Z,52.44
2023-05-17T04:50:49.368Z,52.42
2023-05-17T04:51:50.419Z,52.42
2023-05-17T04:52:50.487Z,52.42
2023-05-17T04:53:50.526Z,52.40
2023-05-17T04:54:50.590Z,52.41
2023-05-17T04:55:50.645Z,52.40
2023-05-17T04:56:50.687Z,52.36
2023-05-17T04:57:50.722Z,52.39
2023-05-17T04:58:51.639Z,52.43
2023-05-17T04:59:50.752Z,52.42
2023-05-17T05:00:50.733Z,52.43
2023-05-17T05:01:50.911Z,52.45
2023-05-17T05:02:50.720Z,52.45
2023-05-17T05:03:50.785Z,52.44
2023-05-17T05:04:50.704Z,52.45
2023-05-17T05:05:49.832Z,52.45
2023-05-17T05:06:50.711Z,52.43
2023-05-17T05:07:50.748Z,52.43
2023-05-17T05:08:49.706Z,52.46
2023-05-17T05:09:50.666Z,52.43
2023-05-17T05:10:50.673Z,52.45
2023-05-17T05:11:49.685Z,52.46
2023-05-17T05:12:50.654Z,52.48
2023-05-17T05:13:50.652Z,52.45
2023-05-17T05:14:50.661Z,52.43
2023-05-17T05:15:49.650Z,52.46
2023-05-17T05:16:50.713Z,52.46
2023-05-17T05:17:50.856Z,52.47
2023-05-17T05:18:50.832Z,52.46
2023-05-17T05:19:49.660Z,52.45
2023-05-17T05:20:50.599Z,52.48
2023-05-17T05:21:50.599Z,52.46
2023-05-17T05:22:50.584Z,52.48
2023-05-17T05:23:50.574Z,52.46
2023-05-17T05:24:50.560Z,52.49
2023-05-17T05:25:50.580Z,52.47
2023-05-17T05:26:49.547Z,52.44
2023-05-17T05:27:50.564Z,52.49
2023-05-17T05:28:50.547Z,52.52
2023-05-17T05:29:50.583Z,52.52
2023-05-17T05:30:50.672Z,52.78
2023-05-17T05:31:50.538Z,53.13
2023-05-17T05:32:49.574Z,53.30
2023-05-17T05:33:51.187Z,53.62
2023-05-17T05:34:50.554Z,53.38
2023-05-17T05:35:49.511Z,53.54
2023-05-17T05:36:49.511Z,53.68
2023-05-17T05:37:50.515Z,53.64
2023-05-17T05:38:49.472Z,53.66
2023-05-17T05:39:50.459Z,53.79
2023-05-17T05:40:50.042Z,53.63
2023-05-17T05:41:49.591Z,53.64
2023-05-17T05:42:50.626Z,54.03
2023-05-17T05:43:50.684Z,54.40
2023-05-17T05:44:50.726Z,54.46
2023-05-17T05:45:50.787Z,53.99
2023-05-17T05:46:50.824Z,54.08
2023-05-17T05:47:50.924Z,54.49
2023-05-17T05:48:49.922Z,53.96
2023-05-17T05:49:51.195Z,53.86
2023-05-17T05:50:51.036Z,52.98
2023-05-17T05:51:50.091Z,52.64
2023-05-17T05:52:50.176Z,52.86
2023-05-17T05:53:51.164Z,52.05
2023-05-17T05:54:50.174Z,52.79
2023-05-17T05:55:51.217Z,52.98
2023-05-17T05:56:51.432Z,53.19
2023-05-17T05:57:50.257Z,53.96
2023-05-17T05:58:51.315Z,53.84
2023-05-17T05:59:51.328Z,53.73
2023-05-17T06:00:50.456Z,53.68
2023-05-17T06:01:54.115Z,53.62
2023-05-17T06:02:50.456Z,53.86
2023-05-17T06:03:51.402Z,53.69
2023-05-17T06:04:51.435Z,53.53
2023-05-17T06:05:51.521Z,53.60
2023-05-17T06:06:51.503Z,53.50
2023-05-17T06:07:51.379Z,53.50
2023-05-17T06:08:51.393Z,53.44
2023-05-17T06:09:51.362Z,53.44
2023-05-17T06:10:51.541Z,53.49
2023-05-17T06:11:51.378Z,53.46
2023-05-17T06:12:53.370Z,53.43
2023-05-17T06:13:51.545Z,53.43
2023-05-17T06:14:50.350Z,53.46
2023-05-17T06:15:50.360Z,53.51
2023-05-17T06:16:51.385Z,53.46
2023-05-17T06:17:50.454Z,53.46
2023-05-17T06:18:51.686Z,53.45
2023-05-17T06:19:51.446Z,53.45
2023-05-17T06:20:50.522Z,53.49
2023-05-17T06:21:51.633Z,53.47
2023-05-17T06:22:50.358Z,53.46
2023-05-17T06:23:51.301Z,53.47
2023-05-17T06:24:51.454Z,53.45
2023-05-17T06:25:51.329Z,53.48
2023-05-17T06:26:51.289Z,53.44
2023-05-17T06:27:50.549Z,53.46
2023-05-17T06:28:50.229Z,53.45
2023-05-17T06:29:51.274Z,53.40
2023-05-17T06:30:51.224Z,53.44
2023-05-17T06:31:51.206Z,53.42
2023-05-17T06:32:51.260Z,53.42
2023-05-17T06:33:51.188Z,53.40
2023-05-17T06:34:51.201Z,53.40
2023-05-17T06:35:56.766Z,53.40
2023-05-17T06:36:51.181Z,53.40
2023-05-17T06:37:50.395Z,53.40
2023-05-17T06:38:51.149Z,53.39
2023-05-17T06:39:55.553Z,53.39
2023-05-17T06:40:51.173Z,53.37
2023-05-17T06:41:50.127Z,53.36
2023-05-17T06:42:51.128Z,53.38
2023-05-17T06:43:51.126Z,53.33
2023-05-17T06:44:50.251Z,53.32
2023-05-17T06:45:50.570Z,53.36
2023-05-17T06:46:51.138Z,53.30
2023-05-17T06:47:51.157Z,53.32
2023-05-17T06:48:51.496Z,53.31
2023-05-17T06:49:51.095Z,53.29
2023-05-17T06:50:51.072Z,53.26
2023-05-17T06:51:51.050Z,53.25
2023-05-17T06:52:51.048Z,53.23
2023-05-17T06:53:50.333Z,53.24
2023-05-17T06:54:51.038Z,53.23
2023-05-17T06:55:50.544Z,53.22
2023-05-17T06:56:51.035Z,53.19
2023-05-17T06:57:51.304Z,53.46
2023-05-17T06:58:51.008Z,53.59
2023-05-17T06:59:51.017Z,53.52
2023-05-17T07:00:50.001Z,53.44
2023-05-17T07:01:50.972Z,53.46
2023-05-17T07:02:50.199Z,53.47
2023-05-17T07:03:51.026Z,53.43
2023-05-17T07:04:50.972Z,53.37
2023-05-17T07:05:50.995Z,53.39
2023-05-17T07:06:50.939Z,53.35
2023-05-17T07:07:50.094Z,53.43
2023-05-17T07:08:50.973Z,53.73
2023-05-17T07:09:51.046Z,53.71
2023-05-17T07:10:51.017Z,53.71
2023-05-17T07:11:51.018Z,53.69
2023-05-17T07:12:51.520Z,53.73
2023-05-17T07:13:51.159Z,53.73
2023-05-17T07:14:50.683Z,53.71
2023-05-17T07:15:50.947Z,53.66
2023-05-17T07:16:50.948Z,53.67
2023-05-17T07:17:51.026Z,53.66
2023-05-17T07:18:51.011Z,53.81
2023-05-17T07:19:51.145Z,53.84
2023-05-17T07:20:51.007Z,53.83
2023-05-17T07:21:50.930Z,53.99
2023-05-17T07:22:50.924Z,54.09
2023-05-17T07:23:50.908Z,54.19
2023-05-17T07:24:49.873Z,54.04
2023-05-17T07:25:51.054Z,54.11
2023-05-17T07:26:52.323Z,54.13
2023-05-17T07:27:50.904Z,54.14
2023-05-17T07:28:49.885Z,54.01
2023-05-17T07:29:50.853Z,54.02
2023-05-17T07:30:50.915Z,54.03
2023-05-17T07:31:50.840Z,53.97
2023-05-17T07:32:50.879Z,54.20
2023-05-17T07:33:50.875Z,54.20
2023-05-17T07:34:50.832Z,54.08
2023-05-17T07:35:49.860Z,54.16
2023-05-17T07:36:50.848Z,54.02
2023-05-17T07:37:49.819Z,54.36
2023-05-17T07:38:49.792Z,54.14
2023-05-17T07:39:50.817Z,54.43
2023-05-17T07:40:49.807Z,54.32
2023-05-17T07:41:50.881Z,54.51
2023-05-17T07:42:49.771Z,54.57
2023-05-17T07:43:50.774Z,54.32
2023-05-17T07:44:50.755Z,54.55
2023-05-17T07:45:50.777Z,54.53
2023-05-17T07:46:50.773Z,54.36
2023-05-17T07:47:49.934Z,54.40
2023-05-17T07:48:50.838Z,53.13
2023-05-17T07:49:50.752Z,52.04
2023-05-17T07:50:50.953Z,52.71
2023-05-17T07:51:49.702Z,53.51
2023-05-17T07:52:56.717Z,52.04
2023-05-17T07:53:49.692Z,51.08
2023-05-17T07:54:50.702Z,50.80
2023-05-17T07:55:49.694Z,51.00
2023-05-17T07:56:50.662Z,51.64
2023-05-17T07:57:49.671Z,52.50
2023-05-17T07:58:50.661Z,52.64
2023-05-17T07:59:50.639Z,52.69
2023-05-17T08:00:49.656Z,52.75
2023-05-17T08:01:50.785Z,52.77
2023-05-17T08:02:50.661Z,52.98
2023-05-17T08:03:50.656Z,52.93
2023-05-17T08:04:50.781Z,52.95
2023-05-17T08:05:50.693Z,52.92
2023-05-17T08:06:50.696Z,53.04
2023-05-17T08:07:49.830Z,53.19
2023-05-17T08:08:50.573Z,53.14
2023-05-17T08:09:50.593Z,53.15
2023-05-17T08:10:50.590Z,53.21
2023-05-17T08:11:49.592Z,53.24
2023-05-17T08:12:50.561Z,53.38
2023-05-17T08:13:49.663Z,53.40
2023-05-17T08:14:49.545Z,53.44
2023-05-17T08:15:51.728Z,53.47
2023-05-17T08:16:50.551Z,53.53
2023-05-17T08:17:50.599Z,53.61
2023-05-17T08:18:49.615Z,53.64
2023-05-17T08:19:50.540Z,53.73
2023-05-17T08:20:50.490Z,53.71
2023-05-17T08:21:49.504Z,53.85
2023-05-17T08:22:49.478Z,53.83
2023-05-17T08:23:49.470Z,53.91
2023-05-17T08:24:50.474Z,53.98
2023-05-17T08:25:50.460Z,54.06
2023-05-17T08:26:50.454Z,54.18
2023-05-17T08:27:50.433Z,54.17
2023-05-17T08:28:50.449Z,54.19
2023-05-17T08:29:49.570Z,54.22
2023-05-17T08:30:49.427Z,54.38
2023-05-17T08:31:49.403Z,54.37
2023-05-17T08:32:50.507Z,54.43
2023-05-17T08:33:50.557Z,54.52
2023-05-17T08:34:50.412Z,54.71
2023-05-17T08:35:50.408Z,54.66
2023-05-17T08:36:50.395Z,54.74
2023-05-17T08:37:50.374Z,54.85
2023-05-17T08:38:49.364Z,54.97
2023-05-17T08:39:50.393Z,55.06
2023-05-17T08:40:49.370Z,55.15
2023-05-17T08:41:49.375Z,55.18
2023-05-17T08:42:50.333Z,55.06
2023-05-17T08:43:50.322Z,55.05
2023-05-17T08:44:50.327Z,55.14
2023-05-17T08:45:49.663Z,55.33
2023-05-17T08:46:49.307Z,55.07
2023-05-17T08:47:49.440Z,55.38
2023-05-17T08:48:49.415Z,55.32
2023-05-17T08:49:50.282Z,55.45
2023-05-17T08:50:50.484Z,55.39
2023-05-17T08:51:50.265Z,55.45
2023-05-17T08:52:49.286Z,55.41
2023-05-17T08:53:50.464Z,55.68
2023-05-17T08:54:50.278Z,55.57
2023-05-17T08:55:49.256Z,55.53
2023-05-17T08:56:49.541Z,55.69
2023-05-17T08:57:49.215Z,55.73
2023-05-17T08:58:56.333Z,55.73
2023-05-17T08:59:50.216Z,55.59
2023-05-17T09:00:49.198Z,55.64
2023-05-17T09:01:50.869Z,55.59
2023-05-17T09:02:50.289Z,55.73
2023-05-17T09:03:50.219Z,55.73
2023-05-17T09:04:50.230Z,55.74
2023-05-17T09:05:49.192Z,55.84
2023-05-17T09:06:49.166Z,55.83
2023-05-17T09:07:50.191Z,55.82
2023-05-17T09:08:49.154Z,55.82
2023-05-17T09:09:50.154Z,55.91
2023-05-17T09:10:50.143Z,55.93
2023-05-17T09:11:50.123Z,56.09
2023-05-17T09:12:50.128Z,56.13
2023-05-17T09:13:50.129Z,55.99
2023-05-17T09:14:50.121Z,56.11
2023-05-17T09:15:49.104Z,56.20
2023-05-17T09:16:49.101Z,56.18
2023-05-17T09:17:50.253Z,56.12
2023-05-17T09:18:50.184Z,56.22
2023-05-17T09:19:50.293Z,56.21
2023-05-17T09:20:49.063Z,56.36
2023-05-17T09:21:49.094Z,56.32
2023-05-17T09:22:50.046Z,56.40
2023-05-17T09:24:01.753Z,56.46
2023-05-17T09:24:50.052Z,56.46
2023-05-17T09:25:50.080Z,56.52
2023-05-17T09:26:50.042Z,56.42
2023-05-17T09:27:50.011Z,56.61
2023-05-17T09:28:50.003Z,56.59
2023-05-17T09:29:50.001Z,56.57
2023-05-17T09:30:50.058Z,56.61
2023-05-17T09:31:50.061Z,56.52
2023-05-17T09:33:49.136Z,56.68
2023-05-17T09:34:49.973Z,56.58
2023-05-17T09:35:49.964Z,56.68
2023-05-17T09:36:48.951Z,56.79
2023-05-17T09:37:49.937Z,56.89
2023-05-17T09:38:49.950Z,56.64
2023-05-17T09:39:49.962Z,56.80
2023-05-17T09:40:49.911Z,56.89
2023-05-17T09:41:49.933Z,56.87
2023-05-17T09:42:48.891Z,56.70
2023-05-17T09:43:48.885Z,56.64
2023-05-17T09:44:48.886Z,56.73
2023-05-17T09:45:48.882Z,56.79
2023-05-17T09:46:50.041Z,56.95
2023-05-17T09:47:49.002Z,56.92
2023-05-17T09:48:50.002Z,56.91
2023-05-17T09:49:48.880Z,56.91
2023-05-17T09:50:48.856Z,56.90
2023-05-17T09:51:49.029Z,56.91
2023-05-17T09:52:48.836Z,56.91
2023-05-17T09:53:49.852Z,56.93
2023-05-17T09:54:49.838Z,56.95
2023-05-17T09:55:49.834Z,56.91
2023-05-17T09:56:49.810Z,57.00
2023-05-17T09:57:49.800Z,56.86
2023-05-17T09:58:48.783Z,56.69
2023-05-17T09:59:49.963Z,56.70
2023-05-17T10:00:49.873Z,56.04
2023-05-17T10:01:48.930Z,56.13
2023-05-17T10:02:50.056Z,56.31
2023-05-17T10:03:50.057Z,56.26
2023-05-17T10:04:49.159Z,56.26
2023-05-17T10:05:50.134Z,56.29
2023-05-17T10:06:52.259Z,56.45
2023-05-17T10:07:49.156Z,56.42
2023-05-17T10:08:49.132Z,56.43
2023-05-17T10:09:49.142Z,56.44
2023-05-17T10:10:50.149Z,56.47
2023-05-17T10:11:50.120Z,56.58
2023-05-17T10:12:50.141Z,56.69
2023-05-17T10:13:50.116Z,56.69
2023-05-17T10:14:49.090Z,56.72
2023-05-17T10:15:50.095Z,56.78
2023-05-17T10:16:49.088Z,56.94
2023-05-17T10:17:50.094Z,56.96
2023-05-17T10:18:50.103Z,56.94
2023-05-17T10:19:49.174Z,57.01
2023-05-17T10:20:50.053Z,57.08
2023-05-17T10:21:50.075Z,57.19
2023-05-17T10:22:50.060Z,57.20
2023-05-17T10:23:50.037Z,57.24
2023-05-17T10:24:50.052Z,57.38
2023-05-17T10:25:49.045Z,57.55
2023-05-17T10:26:50.027Z,57.58
2023-05-17T10:27:49.010Z,57.56
2023-05-17T10:28:50.001Z,57.48
2023-05-17T10:29:50.869Z,57.57
2023-05-17T10:30:50.009Z,57.56
2023-05-17T10:31:50.048Z,57.74
2023-05-17T10:32:50.075Z,57.74
2023-05-17T10:33:49.992Z,57.77
2023-05-17T10:35:01.536Z,57.72
2023-05-17T10:35:49.963Z,57.81
2023-05-17T10:36:49.998Z,57.92
2023-05-17T10:37:49.995Z,58.00
2023-05-17T10:38:49.951Z,57.95
2023-05-17T10:39:49.943Z,58.10
2023-05-17T10:40:49.948Z,58.09
2023-05-17T10:41:50.043Z,58.29
2023-05-17T10:42:49.944Z,53.00
2023-05-17T10:43:49.909Z,50.86
2023-05-17T10:44:49.899Z,49.04
2023-05-17T10:45:49.909Z,49.00
2023-05-17T10:46:49.889Z,49.34
2023-05-17T10:47:49.914Z,49.93
2023-05-17T10:48:49.923Z,52.14
2023-05-17T10:49:49.852Z,52.62
2023-05-17T10:51:00.550Z,53.32
2023-05-17T10:51:49.833Z,53.67
2023-05-17T10:52:49.832Z,53.83
2023-05-17T10:53:49.841Z,53.99
2023-05-17T10:54:48.830Z,53.79
2023-05-17T10:55:48.844Z,53.96
2023-05-17T10:56:48.821Z,54.06
2023-05-17T10:57:51.530Z,54.11
2023-05-17T10:58:49.792Z,54.13
2023-05-17T10:59:49.787Z,54.15
2023-05-17T11:00:49.780Z,54.20
2023-05-17T11:01:49.805Z,54.30
2023-05-17T11:02:49.797Z,54.37
2023-05-17T11:03:49.761Z,54.50
2023-05-17T11:04:49.800Z,54.38
2023-05-17T11:05:50.189Z,54.45
2023-05-17T11:06:49.805Z,54.54
2023-05-17T11:07:49.737Z,54.58
2023-05-17T11:08:48.727Z,54.63
2023-05-17T11:09:49.789Z,54.68
2023-05-17T11:10:48.714Z,54.72
2023-05-17T11:11:49.698Z,54.77
2023-05-17T11:12:49.692Z,54.85
2023-05-17T11:13:48.716Z,54.86
2023-05-17T11:14:49.691Z,54.94
2023-05-17T11:15:49.689Z,54.99
2023-05-17T11:16:49.702Z,55.08
2023-05-17T11:17:48.785Z,55.14
2023-05-17T11:18:48.828Z,55.22
2023-05-17T11:19:49.759Z,55.17
2023-05-17T11:20:48.800Z,55.29
2023-05-17T11:21:49.639Z,55.35
2023-05-17T11:22:48.637Z,55.43
2023-05-17T11:23:48.731Z,55.45
2023-05-17T11:24:49.668Z,55.43
2023-05-17T11:25:49.824Z,55.45
2023-05-17T11:26:48.766Z,55.29
2023-05-17T11:27:49.823Z,54.86
2023-05-17T11:28:49.887Z,54.69
2023-05-17T11:29:50.035Z,54.13
2023-05-17T11:30:49.998Z,53.79
2023-05-17T11:31:50.085Z,53.23
2023-05-17T11:32:50.207Z,52.17
2023-05-17T11:33:50.176Z,51.23
2023-05-17T11:34:50.181Z,50.97
2023-05-17T11:35:51.802Z,51.79
2023-05-17T11:36:50.366Z,48.20
2023-05-17T11:37:50.374Z,48.50
2023-05-17T11:38:52.254Z,47.80
2023-05-17T11:39:50.439Z,47.44
2023-05-17T11:40:49.454Z,46.96
2023-05-17T11:41:50.477Z,46.47
2023-05-17T11:42:50.406Z,46.06
2023-05-17T11:43:50.402Z,46.10
2023-05-17T11:44:49.421Z,45.71
2023-05-17T11:45:51.251Z,45.51
2023-05-17T11:46:50.418Z,45.01
2023-05-17T11:47:50.464Z,44.77
2023-05-17T11:48:50.440Z,44.71
2023-05-17T11:49:50.367Z,44.61
2023-05-17T11:50:49.370Z,44.33
2023-05-17T11:51:49.354Z,44.12
2023-05-17T11:52:49.355Z,44.31
2023-05-17T11:53:49.342Z,44.20
2023-05-17T11:54:49.335Z,44.12
2023-05-17T11:55:50.340Z,44.25
2023-05-17T11:56:50.323Z,44.28
2023-05-17T11:57:50.419Z,44.28
2023-05-17T11:58:50.315Z,44.30
2023-05-17T11:59:50.294Z,44.32
2023-05-17T12:00:50.285Z,44.15
2023-05-17T12:01:50.291Z,44.16
2023-05-17T12:02:50.306Z,44.08
2023-05-17T12:03:50.303Z,44.11
2023-05-17T12:04:49.291Z,44.17
2023-05-17T12:05:50.306Z,43.79
2023-05-17T12:06:50.396Z,44.86
2023-05-17T12:07:50.371Z,45.01
2023-05-17T12:08:50.257Z,45.66
2023-05-17T12:09:49.262Z,46.24
2023-05-17T12:10:49.225Z,46.01
2023-05-17T12:11:50.279Z,47.65
2023-05-17T12:12:50.204Z,47.58
2023-05-17T12:13:50.223Z,47.97
2023-05-17T12:14:50.194Z,48.31
2023-05-17T12:15:50.207Z,48.36
2023-05-17T12:16:50.207Z,48.66
2023-05-17T12:17:51.567Z,48.65
2023-05-17T12:18:49.746Z,48.78
2023-05-17T12:19:49.434Z,48.91
2023-05-17T12:20:49.594Z,49.39
2023-05-17T12:21:50.389Z,49.46
2023-05-17T12:22:49.500Z,49.66
2023-05-17T12:23:50.960Z,49.68
2023-05-17T12:24:49.627Z,49.76
2023-05-17T12:25:49.622Z,49.89
2023-05-17T12:26:49.665Z,49.97
2023-05-17T12:27:50.772Z,50.07
2023-05-17T12:28:50.974Z,50.14
2023-05-17T12:29:49.839Z,50.31
2023-05-17T12:30:50.782Z,50.36
2023-05-17T12:31:49.848Z,50.31
2023-05-17T12:32:50.963Z,50.45
2023-05-17T12:33:51.006Z,50.60
2023-05-17T12:34:49.908Z,50.77
2023-05-17T12:35:50.919Z,50.88
2023-05-17T12:36:50.933Z,50.91
2023-05-17T12:37:50.964Z,50.93
2023-05-17T12:38:49.961Z,51.10
2023-05-17T12:39:50.294Z,51.04
2023-05-17T12:40:51.009Z,51.13
2023-05-17T12:41:50.037Z,51.22
2023-05-17T12:42:51.021Z,51.34
2023-05-17T12:43:53.135Z,51.49
2023-05-17T12:44:51.015Z,51.55
2023-05-17T12:45:51.043Z,51.63
2023-05-17T12:46:51.011Z,51.66
2023-05-17T12:47:51.217Z,51.77
2023-05-17T12:48:51.025Z,51.83
2023-05-17T12:49:49.999Z,51.86
2023-05-17T12:50:49.993Z,51.88
2023-05-17T12:51:50.990Z,51.96
2023-05-17T12:52:50.962Z,52.04
2023-05-17T12:53:50.954Z,51.97